Time;durP1;ratioP1;P1;durP2;ratioP2;P2;SDS_P1;SDS_P2;PMS_P1;PMS_P2;Temp;Humidity;BMP_temperature;BMP_pressure;BME280_temperature;BME280_humidity;BME280_pressure;Samples;Min_cycle;Max_cycle;Signal;HPM_P1;HPM_P2
2023/05/22 00:00:55;;;;;;;6.23;5.30;;;20.50;1.00;;;;;;5060379;28;20830;-74
2023/05/22 00:03:23;;;;;;;5.47;5.07;;;20.40;1.00;;;;;;5063165;28;20501;-74
2023/05/22 00:05:52;;;;;;;7.63;5.00;;;20.40;1.00;;;;;;5060685;28;20452;-74
2023/05/22 00:08:19;;;;;;;5.87;5.30;;;20.40;1.00;;;;;;5059958;28;20562;-74
2023/05/22 00:10:46;;;;;;;5.87;5.00;;;20.40;1.00;;;;;;5067054;28;20536;-74
2023/05/22 00:13:12;;;;;;;5.87;5.47;;;20.30;1.00;;;;;;5062961;28;20480;-74
2023/05/22 00:15:39;;;;;;;5.60;5.20;;;20.30;1.00;;;;;;5063367;28;20483;-74
2023/05/22 00:18:07;;;;;;;5.30;4.90;;;20.30;1.00;;;;;;5064251;28;20504;-75
2023/05/22 00:20:37;;;;;;;5.80;5.20;;;20.30;1.00;;;;;;5062326;28;20954;-74
2023/05/22 00:23:08;;;;;;;5.23;4.70;;;20.30;1.00;;;;;;5058750;28;20470;-74
2023/05/22 00:25:35;;;;;;;5.60;5.00;;;20.30;1.00;;;;;;5060937;28;20452;-75
2023/05/22 00:28:03;;;;;;;5.67;5.03;;;20.30;1.00;;;;;;5067023;28;20530;-74
2023/05/22 00:30:30;;;;;;;5.50;5.10;;;20.20;1.00;;;;;;5063522;28;21077;-74
2023/05/22 00:32:57;;;;;;;6.43;5.20;;;20.30;1.00;;;;;;5070313;28;20947;-74
2023/05/22 00:35:30;;;;;;;5.20;4.70;;;20.20;1.00;;;;;;5110062;22;20543;-78
2023/05/22 00:37:57;;;;;;;5.40;4.90;;;20.10;1.00;;;;;;5090894;28;20463;-77
2023/05/22 00:40:26;;;;;;;5.13;4.63;;;20.10;1.00;;;;;;5093205;27;21221;-78
2023/05/22 00:42:53;;;;;;;5.13;4.73;;;20.10;1.00;;;;;;5116430;27;20902;-77
2023/05/22 00:45:24;;;;;;;5.60;5.03;;;20.10;1.00;;;;;;5113629;27;20470;-78
2023/05/22 00:47:52;;;;;;;5.90;5.40;;;20.00;1.00;;;;;;5111428;27;20996;-78
2023/05/22 00:50:24;;;;;;;6.70;5.23;;;20.00;1.00;;;;;;5112974;27;20510;-77
2023/05/22 00:52:52;;;;;;;6.00;5.60;;;20.00;1.00;;;;;;5117297;28;20464;-78
2023/05/22 00:55:23;;;;;;;9.17;5.70;;;19.90;1.00;;;;;;5115208;27;20469;-79
2023/05/22 00:58:13;;;;;;;6.13;5.73;;;19.80;1.00;;;;;;5117130;27;20972;-78
2023/05/22 01:00:42;;;;;;;5.67;5.10;;;19.80;1.00;;;;;;5112262;27;20948;-76
2023/05/22 01:03:09;;;;;;;5.10;4.60;;;19.80;1.00;;;;;;5116521;22;20454;-73
2023/05/22 01:05:37;;;;;;;6.90;6.20;;;19.70;1.00;;;;;;5119652;27;20805;-69
2023/05/22 01:08:06;;;;;;;8.83;5.47;;;19.70;1.00;;;;;;5125515;27;20505;-69
2023/05/22 01:10:33;;;;;;;7.83;5.47;;;19.60;1.00;;;;;;5123401;27;20468;-69
2023/05/22 01:13:06;;;;;;;5.97;5.47;;;19.60;1.00;;;;;;5123875;27;20449;-69
2023/05/22 01:15:43;;;;;;;5.63;5.13;;;19.60;1.00;;;;;;5118188;27;20552;-69
2023/05/22 01:18:18;;;;;;;5.93;5.43;;;19.50;1.00;;;;;;5120953;27;20554;-69
2023/05/22 01:20:56;;;;;;;5.30;4.90;;;19.50;1.00;;;;;;5126525;27;20457;-69
2023/05/22 01:24:05;;;;;;;5.10;4.70;;;19.40;1.00;;;;;;5119366;27;20453;-70
2023/05/22 01:26:57;;;;;;;7.87;5.40;;;19.40;1.00;;;;;;5125137;27;20464;-69
2023/05/22 01:29:45;;;;;;;6.63;5.17;;;19.30;1.00;;;;;;5125318;27;20476;-70
2023/05/22 01:32:20;;;;;;;5.37;4.87;;;19.20;1.00;;;;;;5126082;27;20471;-71
2023/05/22 01:34:50;;;;;;;5.07;4.60;;;19.20;1.00;;;;;;5123556;27;20452;-69
2023/05/22 01:37:20;;;;;;;7.60;5.40;;;19.20;1.00;;;;;;5124323;27;20465;-69
2023/05/22 01:39:48;;;;;;;5.23;4.83;;;19.10;1.00;;;;;;5123721;27;20475;-69
2023/05/22 01:42:15;;;;;;;5.63;5.13;;;19.10;1.00;;;;;;5127819;27;20457;-70
2023/05/22 01:44:42;;;;;;;5.23;4.73;;;19.10;1.00;;;;;;5128878;27;20514;-70
2023/05/22 01:47:09;;;;;;;5.87;5.37;;;19.00;1.00;;;;;;5122475;27;20920;-70
2023/05/22 01:49:38;;;;;;;6.30;4.93;;;18.90;1.00;;;;;;5124698;27;20566;-69
2023/05/22 01:52:12;;;;;;;5.80;5.40;;;18.90;1.00;;;;;;5124401;27;20539;-69
2023/05/22 01:54:46;;;;;;;5.43;4.93;;;18.90;1.00;;;;;;5122132;27;22291;-69
2023/05/22 01:57:17;;;;;;;6.33;5.33;;;18.80;1.00;;;;;;5126334;27;20471;-69
2023/05/22 01:59:47;;;;;;;5.70;5.20;;;18.80;1.00;;;;;;5121518;27;20491;-69
2023/05/22 02:02:17;;;;;;;5.93;5.00;;;18.80;1.00;;;;;;5124424;27;20471;-69
2023/05/22 02:04:50;;;;;;;6.33;5.50;;;18.80;1.00;;;;;;5123621;27;20469;-70
2023/05/22 02:07:20;;;;;;;5.53;5.03;;;18.70;1.00;;;;;;5124935;27;20510;-69
2023/05/22 02:09:48;;;;;;;5.57;5.17;;;18.70;1.00;;;;;;5121037;27;21151;-69
2023/05/22 02:12:15;;;;;;;7.13;5.03;;;18.60;1.00;;;;;;5117834;27;20545;-69
2023/05/22 02:14:43;;;;;;;5.80;5.30;;;18.60;1.00;;;;;;5122021;27;20903;-69
2023/05/22 02:17:11;;;;;;;6.93;6.33;;;18.50;1.00;;;;;;5122368;27;20491;-68
2023/05/22 02:19:38;;;;;;;5.60;5.07;;;18.50;1.00;;;;;;5122831;27;20476;-68
2023/05/22 02:22:08;;;;;;;6.40;5.37;;;18.50;1.00;;;;;;5123424;27;21316;-69
2023/05/22 02:24:36;;;;;;;5.70;4.93;;;18.50;1.00;;;;;;5126216;27;20882;-69
2023/05/22 02:27:03;;;;;;;5.60;5.07;;;18.50;1.00;;;;;;5125605;27;20462;-68
2023/05/22 02:29:30;;;;;;;5.60;5.20;;;18.50;1.00;;;;;;5121388;27;20482;-68
2023/05/22 02:31:57;;;;;;;6.13;5.50;;;18.40;1.00;;;;;;5120469;27;20980;-69
2023/05/22 02:34:25;;;;;;;6.60;5.43;;;18.40;1.00;;;;;;5116331;27;21245;-69
2023/05/22 02:36:52;;;;;;;7.13;5.63;;;18.30;1.00;;;;;;5121850;27;20447;-69
2023/05/22 02:39:21;;;;;;;5.67;5.07;;;18.30;1.00;;;;;;5123724;27;20484;-69
2023/05/22 02:41:48;;;;;;;5.17;4.77;;;18.30;1.00;;;;;;5123842;27;20455;-69
2023/05/22 02:44:17;;;;;;;8.57;7.63;;;18.30;1.00;;;;;;5123783;27;20560;-69
2023/05/22 02:47:01;;;;;;;7.10;6.13;;;18.30;1.00;;;;;;5123222;27;20507;-69
2023/05/22 02:49:28;;;;;;;6.60;5.60;;;18.20;1.00;;;;;;5122557;27;20486;-69
2023/05/22 02:51:55;;;;;;;7.47;6.40;;;18.20;1.00;;;;;;5122383;27;20455;-69
2023/05/22 02:54:24;;;;;;;5.77;5.27;;;18.10;1.00;;;;;;5126398;27;20527;-69
2023/05/22 02:56:51;;;;;;;6.13;5.57;;;18.10;1.00;;;;;;5122133;27;20465;-69
2023/05/22 02:59:18;;;;;;;6.73;5.50;;;18.10;1.00;;;;;;5123866;27;21138;-69
2023/05/22 03:01:47;;;;;;;6.53;5.80;;;18.10;1.00;;;;;;5124662;27;20994;-70
2023/05/22 03:04:14;;;;;;;6.97;5.03;;;18.10;1.00;;;;;;5123892;27;20458;-69
2023/05/22 03:06:45;;;;;;;6.63;6.03;;;18.00;1.00;;;;;;5119012;27;20441;-68
2023/05/22 03:09:14;;;;;;;7.43;6.13;;;18.00;1.00;;;;;;5125839;27;20477;-69
2023/05/22 03:11:43;;;;;;;5.63;5.17;;;18.00;1.00;;;;;;5123171;27;20863;-69
2023/05/22 03:14:10;;;;;;;5.43;5.03;;;17.90;1.00;;;;;;5124108;27;20546;-69
2023/05/22 03:16:36;;;;;;;7.20;5.70;;;17.90;1.00;;;;;;5124408;27;20447;-69
2023/05/22 03:19:11;;;;;;;5.70;5.20;;;17.80;1.00;;;;;;5126360;27;20483;-69
2023/05/22 03:21:38;;;;;;;5.10;4.70;;;17.90;1.00;;;;;;5129116;27;20514;-69
2023/05/22 03:24:05;;;;;;;5.83;5.33;;;17.90;1.00;;;;;;5126692;27;20489;-69
2023/05/22 03:26:32;;;;;;;9.13;6.53;;;17.80;1.00;;;;;;5128955;27;20458;-69
2023/05/22 03:29:00;;;;;;;8.53;5.77;;;17.80;1.00;;;;;;5131802;27;20527;-69
2023/05/22 03:31:30;;;;;;;6.00;4.97;;;17.80;1.00;;;;;;5126284;27;21484;-69
2023/05/22 03:33:57;;;;;;;7.80;5.40;;;17.80;1.00;;;;;;5126345;27;20542;-69
2023/05/22 03:36:24;;;;;;;9.23;6.30;;;17.70;1.00;;;;;;5126961;27;20545;-69
2023/05/22 03:38:51;;;;;;;7.07;5.80;;;17.70;1.00;;;;;;5126482;27;20512;-69
2023/05/22 03:41:18;;;;;;;7.03;6.33;;;17.70;1.00;;;;;;5122558;27;20537;-68
2023/05/22 03:43:45;;;;;;;9.33;5.70;;;17.70;1.00;;;;;;5124425;27;20464;-69
2023/05/22 03:46:14;;;;;;;7.70;6.90;;;17.70;1.00;;;;;;5130380;27;20453;-69
2023/05/22 03:48:41;;;;;;;60.47;12.00;;;17.70;1.00;;;;;;5118932;27;20540;-69
2023/05/22 03:51:08;;;;;;;12.00;6.27;;;17.70;1.00;;;;;;5123041;27;20457;-69
2023/05/22 03:53:35;;;;;;;10.40;6.03;;;17.70;1.00;;;;;;5127648;27;20557;-69
2023/05/22 03:56:02;;;;;;;6.20;5.30;;;17.60;1.00;;;;;;5122504;27;20573;-69
2023/05/22 03:58:28;;;;;;;6.23;5.57;;;17.60;1.00;;;;;;5124465;27;20561;-70
2023/05/22 04:00:57;;;;;;;6.53;5.93;;;17.60;1.00;;;;;;5122049;27;20553;-69
2023/05/22 04:03:25;;;;;;;7.00;5.83;;;17.60;1.00;;;;;;5119428;27;20476;-69
2023/05/22 04:05:52;;;;;;;8.17;6.70;;;17.60;1.00;;;;;;5119414;27;20495;-69
2023/05/22 04:08:20;;;;;;;6.70;6.10;;;17.60;1.00;;;;;;5127172;27;20469;-69
2023/05/22 04:10:47;;;;;;;7.73;6.57;;;17.70;1.00;;;;;;5124135;27;20456;-69
2023/05/22 04:13:15;;;;;;;6.67;6.00;;;17.60;1.00;;;;;;5124636;27;20628;-68
2023/05/22 04:15:44;;;;;;;9.30;8.27;;;17.60;1.00;;;;;;5128888;27;20471;-69
2023/05/22 04:18:11;;;;;;;8.30;6.47;;;17.60;1.00;;;;;;5122070;27;20464;-69
2023/05/22 04:20:40;;;;;;;7.87;6.43;;;17.70;1.00;;;;;;5121729;27;20483;-69
2023/05/22 04:23:07;;;;;;;8.60;6.47;;;17.70;1.00;;;;;;5122367;27;20993;-68
2023/05/22 04:25:35;;;;;;;8.83;6.83;;;17.70;1.00;;;;;;5124726;27;20486;-70
2023/05/22 04:28:03;;;;;;;11.10;7.53;;;17.70;1.00;;;;;;5128431;27;20885;-69
2023/05/22 04:30:32;;;;;;;7.10;6.50;;;17.70;1.00;;;;;;5121474;27;20984;-69
2023/05/22 04:33:00;;;;;;;7.93;6.77;;;17.80;1.00;;;;;;5123620;27;20964;-69
2023/05/22 04:35:30;;;;;;;8.93;5.80;;;17.90;1.00;;;;;;5109667;27;21049;-70
2023/05/22 04:38:02;;;;;;;7.20;6.60;;;18.00;1.00;;;;;;5120879;27;21224;-69
2023/05/22 04:40:32;;;;;;;7.33;6.63;;;17.90;1.00;;;;;;5124671;27;20502;-69
2023/05/22 04:43:00;;;;;;;7.10;5.70;;;18.00;1.00;;;;;;5125368;27;20493;-68
2023/05/22 04:45:27;;;;;;;7.07;6.40;;;18.00;1.00;;;;;;5126951;27;20862;-68
2023/05/22 04:47:54;;;;;;;15.00;7.10;;;18.10;1.00;;;;;;5123044;27;20486;-68
2023/05/22 04:50:22;;;;;;;6.47;5.87;;;18.20;1.00;;;;;;5124575;27;20485;-68
2023/05/22 04:52:49;;;;;;;14.30;7.23;;;18.20;1.00;;;;;;5121639;27;20465;-67
2023/05/22 04:55:19;;;;;;;7.40;6.80;;;18.30;1.00;;;;;;5126360;27;20452;-68
2023/05/22 04:57:46;;;;;;;7.03;6.47;;;18.30;1.00;;;;;;5121100;27;20468;-68
2023/05/22 05:00:15;;;;;;;7.87;6.50;;;18.40;1.00;;;;;;5122629;27;22450;-67
2023/05/22 05:02:43;;;;;;;6.83;6.07;;;18.40;1.00;;;;;;5121278;27;20892;-69
2023/05/22 05:05:18;;;;;;;7.33;6.60;;;18.50;1.00;;;;;;5129125;27;20450;-67
2023/05/22 05:07:47;;;;;;;9.40;6.70;;;18.60;1.00;;;;;;5124087;27;20521;-69
2023/05/22 05:10:14;;;;;;;6.60;5.87;;;18.50;1.00;;;;;;5122869;27;20511;-68
2023/05/22 05:12:42;;;;;;;7.03;5.50;;;18.40;1.00;;;;;;5119651;27;20446;-68
2023/05/22 05:15:13;;;;;;;7.23;6.53;;;18.50;1.00;;;;;;5125975;27;20459;-68
2023/05/22 05:17:40;;;;;;;6.90;6.20;;;18.50;1.00;;;;;;5122987;27;20476;-68
2023/05/22 05:20:09;;;;;;;7.77;6.70;;;18.60;1.00;;;;;;5122268;27;21410;-69
2023/05/22 05:22:36;;;;;;;7.37;6.70;;;18.60;1.00;;;;;;5126160;27;20535;-70
2023/05/22 05:25:05;;;;;;;8.10;6.30;;;18.70;1.00;;;;;;5121199;27;20451;-68
2023/05/22 05:27:33;;;;;;;38.00;22.27;;;18.80;1.00;;;;;;5121506;27;20907;-68
2023/05/22 05:30:01;;;;;;;10.20;6.93;;;18.70;1.00;;;;;;5124290;27;20479;-68
2023/05/22 05:32:31;;;;;;;6.60;6.10;;;18.80;1.00;;;;;;5122399;27;20561;-69
2023/05/22 05:34:58;;;;;;;14.93;9.53;;;18.80;1.00;;;;;;5123490;27;20544;-69
2023/05/22 05:37:26;;;;;;;8.30;7.20;;;18.90;1.00;;;;;;5122054;27;20481;-68
2023/05/22 05:39:53;;;;;;;10.20;7.20;;;19.00;1.00;;;;;;5123574;27;20814;-71
2023/05/22 05:42:21;;;;;;;8.93;6.83;;;18.90;1.00;;;;;;5121758;27;20454;-73
2023/05/22 05:44:51;;;;;;;9.07;7.20;;;18.90;1.00;;;;;;5120545;27;20510;-73
2023/05/22 05:47:22;;;;;;;11.60;7.37;;;18.80;1.00;;;;;;5127244;27;20521;-72
2023/05/22 05:49:49;;;;;;;7.37;6.63;;;18.80;1.00;;;;;;5115288;27;20949;-72
2023/05/22 05:52:16;;;;;;;10.93;7.60;;;18.80;1.00;;;;;;5123938;27;20976;-74
2023/05/22 05:54:46;;;;;;;8.20;7.50;;;18.90;1.00;;;;;;5123334;27;20435;-73
2023/05/22 05:57:13;;;;;;;9.60;8.30;;;19.00;1.00;;;;;;5128350;27;20471;-72
2023/05/22 05:59:40;;;;;;;8.63;6.97;;;19.20;1.00;;;;;;5128683;27;20453;-72
2023/05/22 06:02:07;;;;;;;51.57;30.67;;;19.30;1.00;;;;;;5131369;27;20532;-74
2023/05/22 06:04:36;;;;;;;7.63;6.83;;;19.40;1.00;;;;;;5119747;27;20538;-72
2023/05/22 06:07:03;;;;;;;15.73;8.50;;;19.50;1.00;;;;;;5128301;27;20462;-72
2023/05/22 06:09:30;;;;;;;8.07;7.00;;;19.60;1.00;;;;;;5123205;27;20553;-73
2023/05/22 06:11:58;;;;;;;14.73;7.10;;;19.80;1.00;;;;;;5145475;27;20938;-71
2023/05/22 06:14:25;;;;;;;8.60;6.50;;;20.00;1.00;;;;;;5124001;27;20499;-72
2023/05/22 06:16:52;;;;;;;7.60;6.80;;;20.00;1.00;;;;;;5122308;27;20468;-69
2023/05/22 06:19:19;;;;;;;13.33;7.70;;;20.10;1.00;;;;;;5123517;27;20503;-69
2023/05/22 06:21:47;;;;;;;10.43;6.50;;;20.10;1.00;;;;;;5124379;27;20543;-68
2023/05/22 06:24:14;;;;;;;7.63;6.93;;;20.00;1.00;;;;;;5127893;27;20461;-69
2023/05/22 06:26:41;;;;;;;7.53;6.93;;;19.90;1.00;;;;;;5128486;27;20495;-68
2023/05/22 06:29:08;;;;;;;8.40;7.60;;;20.00;1.00;;;;;;5128990;27;20466;-68
2023/05/22 06:31:37;;;;;;;8.00;7.30;;;20.00;1.00;;;;;;5127477;27;20892;-68
2023/05/22 06:34:04;;;;;;;7.00;6.50;;;20.00;1.00;;;;;;5128390;27;20514;-69
2023/05/22 06:36:33;;;;;;;7.80;7.20;;;20.00;1.00;;;;;;5130151;27;20658;-69
2023/05/22 06:39:02;;;;;;;8.97;7.73;;;20.00;1.00;;;;;;5124336;27;21019;-68
2023/05/22 06:41:29;;;;;;;7.40;6.70;;;20.10;1.00;;;;;;5125222;27;20495;-68
2023/05/22 06:43:56;;;;;;;8.93;8.03;;;20.20;1.00;;;;;;5126329;27;21048;-67
2023/05/22 06:46:22;;;;;;;8.23;7.40;;;20.30;1.00;;;;;;5126557;27;20856;-68
2023/05/22 06:48:49;;;;;;;13.63;6.93;;;20.40;1.00;;;;;;5119005;27;20453;-67
2023/05/22 06:51:17;;;;;;;7.20;6.50;;;20.60;1.00;;;;;;5129813;27;20592;-67
2023/05/22 06:53:46;;;;;;;7.80;6.97;;;20.60;1.00;;;;;;5131101;27;20477;-67
2023/05/22 06:56:14;;;;;;;14.67;8.57;;;20.70;1.00;;;;;;5130250;27;20472;-67
2023/05/22 06:58:41;;;;;;;10.43;8.20;;;20.80;1.00;;;;;;5124632;27;20486;-69
2023/05/22 07:01:08;;;;;;;7.93;7.23;;;21.00;1.00;;;;;;5126891;27;20501;-70
2023/05/22 07:03:35;;;;;;;10.40;7.17;;;21.20;1.00;;;;;;5128726;27;20542;-69
2023/05/22 07:06:02;;;;;;;8.80;6.80;;;21.40;1.00;;;;;;5123196;27;20907;-69
2023/05/22 07:08:29;;;;;;;9.93;7.63;;;21.50;1.00;;;;;;5131784;27;20457;-68
2023/05/22 07:10:56;;;;;;;8.03;7.23;;;21.60;1.00;;;;;;5128112;27;20530;-69
2023/05/22 07:13:25;;;;;;;9.33;7.33;;;21.70;1.00;;;;;;5126144;27;20496;-70
2023/05/22 07:15:51;;;;;;;8.20;6.87;;;21.60;1.00;;;;;;5128188;27;20900;-69
2023/05/22 07:18:18;;;;;;;8.20;7.40;;;21.60;1.00;;;;;;5128632;27;20542;-71
2023/05/22 07:20:45;;;;;;;7.80;7.10;;;21.50;1.00;;;;;;5130657;27;20503;-71
2023/05/22 07:23:12;;;;;;;8.27;7.67;;;21.50;1.00;;;;;;5127340;27;21346;-71
2023/05/22 07:25:39;;;;;;;20.90;9.30;;;21.70;1.00;;;;;;5126371;27;20553;-72
2023/05/22 07:28:09;;;;;;;7.53;6.83;;;22.00;1.00;;;;;;5131224;27;20452;-71
2023/05/22 07:30:38;;;;;;;7.50;6.90;;;22.20;1.00;;;;;;5126770;27;22286;-73
2023/05/22 07:33:06;;;;;;;10.43;6.87;;;22.20;1.00;;;;;;5130093;27;20544;-72
2023/05/22 07:35:33;;;;;;;9.80;7.00;;;22.40;1.00;;;;;;5127873;27;20917;-71
2023/05/22 07:38:00;;;;;;;8.40;7.40;;;22.50;1.00;;;;;;5133827;27;21070;-72
2023/05/22 07:40:27;;;;;;;11.00;7.43;;;22.40;1.00;;;;;;5128524;27;20524;-73
2023/05/22 07:42:54;;;;;;;7.67;6.93;;;22.40;1.00;;;;;;5130832;27;20541;-73
2023/05/22 07:45:21;;;;;;;10.00;7.03;;;22.40;1.00;;;;;;5127065;27;20472;-73
2023/05/22 07:47:49;;;;;;;9.00;6.57;;;22.40;1.00;;;;;;5129127;27;20537;-73
2023/05/22 07:50:16;;;;;;;10.83;8.60;;;22.60;1.00;;;;;;5123315;27;20500;-70
2023/05/22 07:52:44;;;;;;;9.30;7.10;;;22.60;1.00;;;;;;5127622;27;20501;-70
2023/05/22 07:55:11;;;;;;;9.10;7.60;;;22.50;1.00;;;;;;5130927;27;20975;-72
2023/05/22 07:57:39;;;;;;;9.23;7.33;;;22.60;1.00;;;;;;5129770;27;20490;-72
2023/05/22 08:00:12;;;;;;;10.07;7.70;;;22.90;1.00;;;;;;5133704;27;20978;-71
2023/05/22 08:02:39;;;;;;;7.30;6.63;;;23.00;1.00;;;;;;5129904;27;20514;-73
2023/05/22 08:05:09;;;;;;;9.90;7.40;;;23.40;1.00;;;;;;5128093;27;20490;-72
2023/05/22 08:07:36;;;;;;;9.87;7.53;;;23.70;1.00;;;;;;5127712;27;21111;-73
2023/05/22 08:10:08;;;;;;;7.13;6.50;;;24.00;1.00;;;;;;5128170;27;20463;-72
2023/05/22 08:12:35;;;;;;;11.93;7.07;;;24.10;1.00;;;;;;5131879;27;20460;-71
2023/05/22 08:15:02;;;;;;;6.33;5.73;;;24.20;1.00;;;;;;5132145;27;20533;-70
2023/05/22 08:17:29;;;;;;;7.20;6.50;;;24.20;1.00;;;;;;5131403;27;20462;-72
2023/05/22 08:19:56;;;;;;;8.80;7.27;;;24.10;1.00;;;;;;5134781;27;20543;-72
2023/05/22 08:22:24;;;;;;;6.93;6.30;;;24.30;1.00;;;;;;5129905;27;20555;-72
2023/05/22 08:24:51;;;;;;;6.93;6.23;;;24.60;1.00;;;;;;5122851;27;20465;-71
2023/05/22 08:27:18;;;;;;;8.40;6.20;;;24.80;1.00;;;;;;5126552;27;21588;-72
2023/05/22 08:29:45;;;;;;;6.90;6.30;;;25.00;1.00;;;;;;5125863;27;20542;-73
2023/05/22 08:32:12;;;;;;;8.43;6.60;;;25.20;1.00;;;;;;5124975;27;20501;-72
2023/05/22 08:34:40;;;;;;;6.60;6.10;;;25.30;1.00;;;;;;5128878;27;20485;-71
2023/05/22 08:37:11;;;;;;;6.60;6.10;;;25.60;1.00;;;;;;5131463;27;20459;-70
2023/05/22 08:39:39;;;;;;;10.97;6.60;;;25.60;1.00;;;;;;5128571;27;20477;-71
2023/05/22 08:42:06;;;;;;;6.57;6.00;;;25.90;1.00;;;;;;5130958;27;20860;-71
2023/05/22 08:44:33;;;;;;;6.53;5.93;;;26.00;1.00;;;;;;5128610;27;20535;-74
2023/05/22 08:47:03;;;;;;;8.90;6.43;;;26.00;1.00;;;;;;5130990;27;20438;-74
2023/05/22 08:49:30;;;;;;;6.30;5.80;;;25.90;1.00;;;;;;5131539;27;20467;-74
2023/05/22 08:52:05;;;;;;;5.90;5.40;;;25.80;1.00;;;;;;5134712;27;20467;-71
2023/05/22 08:54:36;;;;;;;10.57;6.73;;;25.80;1.00;;;;;;5125551;27;21356;-71
2023/05/22 08:57:05;;;;;;;6.27;5.67;;;25.90;1.00;;;;;;5131382;27;20541;-72
2023/05/22 08:59:34;;;;;;;6.43;5.83;;;25.80;1.00;;;;;;5133648;27;20945;-73
2023/05/22 09:02:03;;;;;;;6.93;5.63;;;25.90;1.00;;;;;;5135340;27;20548;-72
2023/05/22 09:04:30;;;;;;;8.57;6.37;;;26.10;1.00;;;;;;5123253;27;20973;-71
2023/05/22 09:07:04;;;;;;;7.10;6.27;;;26.40;1.00;;;;;;5129759;27;20451;-72
2023/05/22 09:09:31;;;;;;;6.00;5.47;;;26.50;1.00;;;;;;5130265;27;20471;-73
2023/05/22 09:11:59;;;;;;;7.00;6.30;;;26.70;1.00;;;;;;5133400;27;20480;-72
2023/05/22 09:14:27;;;;;;;12.30;8.33;;;26.60;1.00;;;;;;5128661;27;20934;-73
2023/05/22 09:16:54;;;;;;;6.43;5.83;;;26.60;1.00;;;;;;5133833;27;20976;-73
2023/05/22 09:19:21;;;;;;;6.63;5.60;;;26.70;1.00;;;;;;5132596;27;20599;-73
2023/05/22 09:21:49;;;;;;;7.07;5.40;;;26.70;1.00;;;;;;5127017;27;20905;-73
2023/05/22 09:24:16;;;;;;;6.00;5.40;;;26.90;1.00;;;;;;5124610;27;20522;-73
2023/05/22 09:26:43;;;;;;;5.23;4.77;;;27.10;1.00;;;;;;5129538;27;20561;-75
2023/05/22 09:29:10;;;;;;;8.63;5.90;;;27.40;1.00;;;;;;5124668;27;21356;-74
2023/05/22 09:31:45;;;;;;;6.20;5.33;;;27.60;1.00;;;;;;5123321;27;20456;-74
2023/05/22 09:34:14;;;;;;;10.53;6.07;;;28.20;1.00;;;;;;5128561;27;21068;-75
2023/05/22 09:36:41;;;;;;;5.90;5.40;;;28.60;1.00;;;;;;5130515;27;20479;-76
2023/05/22 09:39:08;;;;;;;6.43;5.57;;;28.80;1.00;;;;;;5127998;27;20462;-73
2023/05/22 09:41:37;;;;;;;5.40;5.00;;;29.30;1.00;;;;;;5134237;27;20460;-73
2023/05/22 09:44:12;;;;;;;5.73;5.23;;;29.40;1.00;;;;;;5131458;27;20540;-73
2023/05/22 09:46:40;;;;;;;11.07;5.60;;;29.00;1.00;;;;;;5134159;27;20467;-74
2023/05/22 09:49:09;;;;;;;8.00;5.80;;;29.10;1.00;;;;;;5127670;27;20462;-73
2023/05/22 09:51:39;;;;;;;7.30;5.37;;;29.00;1.00;;;;;;5130230;27;20455;-74
2023/05/22 09:54:09;;;;;;;8.97;5.67;;;28.70;1.00;;;;;;5126751;27;20474;-74
2023/05/22 09:56:37;;;;;;;8.30;7.60;;;28.20;1.00;;;;;;5132479;27;20455;-74
2023/05/22 09:59:05;;;;;;;8.30;5.57;;;28.20;1.00;;;;;;5128470;27;20462;-73
2023/05/22 10:01:33;;;;;;;6.70;4.93;;;28.30;1.00;;;;;;5125721;27;20493;-74
2023/05/22 10:04:02;;;;;;;9.73;5.47;;;28.40;1.00;;;;;;5123914;27;20568;-74
2023/05/22 10:06:33;;;;;;;6.57;5.97;;;28.60;1.00;;;;;;5123576;27;20545;-75
2023/05/22 10:09:04;;;;;;;6.17;5.60;;;29.50;1.00;;;;;;5132162;27;20894;-75
2023/05/22 10:11:33;;;;;;;5.50;5.00;;;30.60;1.00;;;;;;5134356;27;20480;-76
2023/05/22 10:14:00;;;;;;;5.03;4.63;;;31.00;1.00;;;;;;5134281;27;20453;-75
2023/05/22 10:16:29;;;;;;;6.20;5.73;;;30.60;1.00;;;;;;5133441;27;20488;-74
2023/05/22 10:18:56;;;;;;;6.30;4.97;;;30.70;1.00;;;;;;5135639;27;20459;-75
2023/05/22 10:21:24;;;;;;;5.03;4.70;;;30.80;1.00;;;;;;5135921;27;20471;-75
2023/05/22 10:23:54;;;;;;;8.93;6.17;;;30.70;1.00;;;;;;5134259;27;20642;-75
2023/05/22 10:26:22;;;;;;;5.03;4.53;;;30.80;1.00;;;;;;5135038;27;20597;-75
2023/05/22 10:28:57;;;;;;;6.60;5.23;;;31.20;1.00;;;;;;5135516;27;20467;-73
2023/05/22 10:31:32;;;;;;;5.00;4.50;;;31.60;1.00;;;;;;5128826;27;20530;-75
2023/05/22 10:34:04;;;;;;;7.87;5.43;;;32.00;1.00;;;;;;5130763;27;20927;-74
2023/05/22 10:36:41;;;;;;;6.90;6.30;;;31.20;1.00;;;;;;5131022;27;20549;-74
2023/05/22 10:39:28;;;;;;;9.80;5.80;;;30.70;1.00;;;;;;5128578;27;20459;-74
2023/05/22 10:41:55;;;;;;;7.10;5.13;;;31.00;1.00;;;;;;5132465;27;20453;-75
2023/05/22 10:44:23;;;;;;;5.30;4.80;;;31.30;1.00;;;;;;5126492;27;22525;-75
2023/05/22 10:46:50;;;;;;;7.23;5.60;;;31.30;1.00;;;;;;5131934;27;20489;-75
2023/05/22 10:49:22;;;;;;;7.20;5.17;;;31.30;1.00;;;;;;5129139;27;20465;-73
2023/05/22 10:51:49;;;;;;;9.07;5.83;;;31.30;1.00;;;;;;5124221;27;20465;-74
2023/05/22 10:54:17;;;;;;;5.80;4.63;;;31.20;1.00;;;;;;5122094;27;20864;-73
2023/05/22 10:56:45;;;;;;;6.57;5.07;;;31.10;1.00;;;;;;5123868;27;20456;-72
2023/05/22 10:59:12;;;;;;;6.30;5.70;;;31.20;1.00;;;;;;5123154;27;20916;-72
2023/05/22 11:01:42;;;;;;;5.80;4.87;;;31.20;1.00;;;;;;5119622;27;20492;-73
2023/05/22 11:04:14;;;;;;;5.17;4.67;;;30.80;1.00;;;;;;5128834;27;20496;-74
2023/05/22 11:06:44;;;;;;;9.23;5.33;;;30.80;1.00;;;;;;5123260;27;20437;-74
2023/05/22 11:09:28;;;;;;;5.60;4.40;;;31.20;1.00;;;;;;5124197;27;20425;-73
2023/05/22 11:12:19;;;;;;;6.00;5.50;;;31.80;1.00;;;;;;5123584;27;20550;-74
2023/05/22 11:14:54;;;;;;;5.93;4.37;;;32.20;1.00;;;;;;5127027;27;20971;-73
2023/05/22 11:17:23;;;;;;;4.27;3.87;;;32.40;1.00;;;;;;5128800;27;20460;-73
2023/05/22 11:20:01;;;;;;;6.37;3.97;;;33.50;1.00;;;;;;5127533;27;20547;-72
2023/05/22 11:22:32;;;;;;;6.40;4.60;;;33.80;1.00;;;;;;5122977;27;20468;-73
2023/05/22 11:25:05;;;;;;;5.10;4.50;;;33.10;1.00;;;;;;5125804;27;20528;-73
2023/05/22 11:27:32;;;;;;;4.63;4.23;;;33.00;1.00;;;;;;5124108;27;21295;-73
2023/05/22 11:30:00;;;;;;;4.80;4.30;;;32.50;1.00;;;;;;5121719;27;20465;-75
2023/05/22 11:32:28;;;;;;;5.33;4.27;;;32.20;1.00;;;;;;5124261;27;20469;-74
2023/05/22 11:34:57;;;;;;;4.50;4.10;;;32.00;1.00;;;;;;5130937;27;20892;-73
2023/05/22 11:37:24;;;;;;;6.00;5.37;;;32.30;1.00;;;;;;5125925;27;20544;-73
2023/05/22 11:39:51;;;;;;;6.23;4.00;;;33.00;1.00;;;;;;5125067;27;20988;-75
2023/05/22 11:42:20;;;;;;;8.77;5.00;;;32.90;1.00;;;;;;5126924;27;20589;-73
2023/05/22 11:44:51;;;;;;;6.17;4.00;;;32.40;1.00;;;;;;5126190;27;20535;-73
2023/05/22 11:47:18;;;;;;;6.90;4.80;;;32.50;1.00;;;;;;5130056;27;20537;-74
2023/05/22 11:49:45;;;;;;;4.77;4.30;;;32.40;1.00;;;;;;5128645;27;20466;-74
2023/05/22 11:52:12;;;;;;;8.27;3.90;;;32.60;1.00;;;;;;5128163;27;20452;-73
2023/05/22 11:54:39;;;;;;;4.87;4.40;;;32.90;1.00;;;;;;5120436;27;20472;-73
2023/05/22 11:57:08;;;;;;;6.67;4.77;;;33.00;1.00;;;;;;5127157;27;20970;-71
2023/05/22 11:59:36;;;;;;;6.63;4.20;;;33.00;1.00;;;;;;5124577;27;20474;-73
2023/05/22 12:02:03;;;;;;;3.70;3.40;;;33.50;1.00;;;;;;5123679;27;20968;-72
2023/05/22 12:04:30;;;;;;;9.80;4.13;;;33.50;1.00;;;;;;5126547;27;20667;-70
2023/05/22 12:06:57;;;;;;;5.00;4.50;;;33.60;1.00;;;;;;5126834;27;20465;-72
2023/05/22 12:09:25;;;;;;;3.90;3.60;;;33.30;1.00;;;;;;5121979;27;21087;-72
2023/05/22 12:11:54;;;;;;;4.60;4.20;;;33.20;1.00;;;;;;5121811;27;20554;-72
2023/05/22 12:14:26;;;;;;;5.27;4.27;;;32.60;1.00;;;;;;5124721;27;21369;-72
2023/05/22 12:16:54;;;;;;;4.60;4.00;;;32.80;1.00;;;;;;5127062;27;20445;-71
2023/05/22 12:19:22;;;;;;;4.57;3.47;;;33.40;1.00;;;;;;5120366;27;20467;-75
2023/05/22 12:22:02;;;;;;;6.20;5.20;;;34.10;1.00;;;;;;5128180;27;20457;-74
2023/05/22 12:24:38;;;;;;;4.47;4.00;;;34.10;1.00;;;;;;5124782;27;20479;-72
2023/05/22 12:27:13;;;;;;;5.17;3.83;;;33.90;1.00;;;;;;5122664;27;20459;-71
2023/05/22 12:29:41;;;;;;;4.10;3.70;;;33.80;1.00;;;;;;5125678;27;20448;-73
2023/05/22 12:32:11;;;;;;;6.17;4.67;;;34.10;1.00;;;;;;5127315;27;20569;-73
2023/05/22 12:34:44;;;;;;;7.90;4.70;;;34.80;1.00;;;;;;5126849;27;20472;-72
2023/05/22 12:37:18;;;;;;;5.43;3.80;;;35.80;1.00;;;;;;5121799;27;21009;-71
2023/05/22 12:39:55;;;;;;;5.30;3.87;;;36.40;1.00;;;;;;5126262;27;20447;-72
2023/05/22 12:42:22;;;;;;;5.13;4.63;;;35.90;1.00;;;;;;5127844;27;20682;-74
2023/05/22 12:44:50;;;;;;;8.40;5.00;;;35.70;1.00;;;;;;5124547;27;20504;-72
2023/05/22 12:47:19;;;;;;;4.63;4.20;;;36.10;1.00;;;;;;5129644;27;20541;-73
2023/05/22 12:49:46;;;;;;;6.20;4.20;;;36.30;1.00;;;;;;5123773;27;20517;-73
2023/05/22 12:52:13;;;;;;;4.40;3.50;;;36.20;1.00;;;;;;5122166;27;20476;-71
2023/05/22 12:54:40;;;;;;;4.60;4.20;;;36.20;1.00;;;;;;5122996;27;20479;-72
2023/05/22 12:57:07;;;;;;;7.70;7.20;;;36.80;1.00;;;;;;5124839;27;20520;-73
2023/05/22 12:59:35;;;;;;;5.80;5.23;;;37.30;1.00;;;;;;5125269;27;20467;-72
2023/05/22 13:02:04;;;;;;;4.77;4.33;;;37.70;1.00;;;;;;5131262;27;20506;-72
2023/05/22 13:04:32;;;;;;;4.37;4.07;;;38.50;1.00;;;;;;5121721;27;20587;-73